createdAt,value
2018-07-22T00:04:48.977Z,28.37
2018-07-22T00:09:46.505Z,28.80
2018-07-22T00:14:44.002Z,27.80
2018-07-22T00:19:41.501Z,30.80
2018-07-22T00:24:38.996Z,29.93
2018-07-22T00:29:36.471Z,30.60
2018-07-22T00:34:33.963Z,28.37
2018-07-22T00:39:31.477Z,29.00
2018-07-22T00:44:28.990Z,27.77
2018-07-22T00:49:26.493Z,26.57
2018-07-22T00:54:24.180Z,30.93
2018-07-22T00:59:21.828Z,30.30
2018-07-22T01:04:19.356Z,28.80
2018-07-22T01:09:16.871Z,27.53
2018-07-22T01:14:14.386Z,30.13
2018-07-22T01:19:11.902Z,28.73
2018-07-22T01:24:09.476Z,27.97
2018-07-22T01:29:07.008Z,28.10
2018-07-22T01:34:04.516Z,31.40
2018-07-22T01:39:02.051Z,31.40
2018-07-22T01:43:59.542Z,31.23
2018-07-22T01:48:57.040Z,32.20
2018-07-22T01:53:54.539Z,33.87
2018-07-22T01:58:52.110Z,32.17
2018-07-22T02:03:49.628Z,39.27
2018-07-22T02:08:47.160Z,32.70
2018-07-22T02:13:44.663Z,35.43
2018-07-22T02:18:42.163Z,33.40
2018-07-22T02:23:39.690Z,34.60
2018-07-22T02:28:37.184Z,37.43
2018-07-22T02:33:34.675Z,37.80
2018-07-22T02:38:32.192Z,40.60
2018-07-22T02:43:29.715Z,40.40
2018-07-22T02:48:27.196Z,39.73
2018-07-22T02:53:24.705Z,44.70
2018-07-22T02:58:22.215Z,40.87
2018-07-22T03:03:19.776Z,42.50
2018-07-22T03:08:17.306Z,38.13
2018-07-22T03:13:14.831Z,38.67
2018-07-22T03:18:12.880Z,42.17
2018-07-22T03:23:10.476Z,42.10
2018-07-22T03:28:08.252Z,43.30
2018-07-22T03:33:05.822Z,41.40
2018-07-22T03:38:03.388Z,43.07
2018-07-22T03:43:00.918Z,43.63
2018-07-22T03:47:58.484Z,43.60
2018-07-22T03:52:56.017Z,46.80
2018-07-22T03:57:53.658Z,45.80
2018-07-22T04:02:51.196Z,47.80
2018-07-22T04:07:48.725Z,45.13
2018-07-22T04:12:46.253Z,46.43
2018-07-22T04:17:43.779Z,49.33
2018-07-22T04:22:41.315Z,46.70
2018-07-22T04:27:38.918Z,45.30
2018-07-22T04:32:36.442Z,42.60
2018-07-22T04:37:34.013Z,42.80
2018-07-22T04:42:31.529Z,42.30
2018-07-22T04:47:29.053Z,41.80
2018-07-22T04:52:26.567Z,41.00
2018-07-22T04:57:24.126Z,40.27
2018-07-22T05:02:22.466Z,41.70
2018-07-22T05:07:19.988Z,39.50
2018-07-22T05:12:17.618Z,42.87
2018-07-22T05:17:15.244Z,40.57
2018-07-22T05:22:12.819Z,42.10
2018-07-22T05:27:10.388Z,41.27
2018-07-22T05:32:07.959Z,41.00
2018-07-22T05:37:05.554Z,45.03
2018-07-22T05:42:04.601Z,43.03
2018-07-22T05:47:02.264Z,41.17
2018-07-22T05:51:59.782Z,38.50
2018-07-22T05:56:57.321Z,39.80
2018-07-22T06:01:54.913Z,36.47
2018-07-22T06:06:52.449Z,39.03
2018-07-22T06:11:55.315Z,37.00
2018-07-22T06:16:52.874Z,35.70
2018-07-22T06:21:50.398Z,33.57
2018-07-22T06:26:47.936Z,34.43
2018-07-22T06:31:45.777Z,35.40
2018-07-22T06:36:43.422Z,35.47
2018-07-22T06:41:49.458Z,33.90
2018-07-22T06:46:47.069Z,32.60
2018-07-22T06:51:44.609Z,32.77
2018-07-22T06:56:42.165Z,30.20
2018-07-22T07:01:39.791Z,29.93
2018-07-22T07:06:37.351Z,30.03
2018-07-22T07:11:43.038Z,30.37
2018-07-22T07:16:40.665Z,30.23
2018-07-22T07:21:38.210Z,28.37
2018-07-22T07:26:35.831Z,33.70
2018-07-22T07:31:33.513Z,32.97
2018-07-22T07:36:31.756Z,34.33
2018-07-22T07:41:34.831Z,33.13
2018-07-22T07:46:35.623Z,32.47
2018-07-22T07:51:33.465Z,29.43
2018-07-22T07:56:31.040Z,29.83
2018-07-22T08:01:28.901Z,31.10
2018-07-22T08:06:26.481Z,27.80
2018-07-22T08:11:33.380Z,29.87
2018-07-22T08:16:30.977Z,25.33
2018-07-22T08:21:28.658Z,26.80
2018-07-22T08:26:26.149Z,30.10
2018-07-22T08:31:23.694Z,31.20
2018-07-22T08:36:21.229Z,28.90
2018-07-22T08:41:22.832Z,21.37
2018-07-22T08:46:20.540Z,27.50
2018-07-22T08:51:18.105Z,27.43
2018-07-22T08:56:15.666Z,24.63
2018-07-22T09:01:13.276Z,25.77
2018-07-22T09:06:10.909Z,25.80
2018-07-22T09:11:10.105Z,23.70
2018-07-22T09:16:07.932Z,25.53
2018-07-22T09:21:05.664Z,21.97
2018-07-22T09:26:03.251Z,22.50
2018-07-22T09:31:00.873Z,22.93
2018-07-22T09:35:58.454Z,23.60
2018-07-22T09:40:59.089Z,21.83
2018-07-22T09:45:56.832Z,21.60
2018-07-22T09:50:54.535Z,18.00
2018-07-22T09:55:52.134Z,18.50
2018-07-22T10:00:54.936Z,19.70
2018-07-22T10:05:52.658Z,17.10
2018-07-22T10:10:50.191Z,19.10
2018-07-22T10:15:47.790Z,19.67
2018-07-22T10:20:45.312Z,18.37
2018-07-22T10:25:42.979Z,17.10
2018-07-22T10:30:40.602Z,15.23
2018-07-22T10:35:38.247Z,14.63
2018-07-22T10:40:35.766Z,13.50
2018-07-22T10:45:33.341Z,15.40
2018-07-22T10:50:30.918Z,15.00
2018-07-22T10:55:28.471Z,8.20
2018-07-22T11:00:26.039Z,12.63
2018-07-22T11:05:23.673Z,8.20
2018-07-22T11:10:21.204Z,9.87
2018-07-22T11:15:18.746Z,10.93
2018-07-22T11:20:16.332Z,6.90
2018-07-22T11:25:13.899Z,7.80
2018-07-22T11:30:11.444Z,7.43
2018-07-22T11:35:08.964Z,7.80
2018-07-22T11:40:06.527Z,7.00
2018-07-22T11:45:04.201Z,7.47
2018-07-22T11:50:01.756Z,7.30
2018-07-22T11:54:59.334Z,7.07
2018-07-22T11:59:56.896Z,7.57
2018-07-22T12:04:54.422Z,5.30
2018-07-22T12:09:51.968Z,6.50
2018-07-22T12:14:49.491Z,6.97
2018-07-22T12:19:46.988Z,6.40
2018-07-22T12:24:44.480Z,6.83
2018-07-22T12:29:41.996Z,6.13
2018-07-22T12:34:39.524Z,6.60
2018-07-22T12:39:40.273Z,5.47
2018-07-22T12:44:37.958Z,5.60
2018-07-22T12:49:35.527Z,5.83
2018-07-22T12:54:33.036Z,4.30
2018-07-22T12:59:30.628Z,6.40
2018-07-22T13:04:28.254Z,5.80
2018-07-22T13:09:25.807Z,5.57
2018-07-22T13:14:23.350Z,6.67
2018-07-22T13:19:20.900Z,5.70
2018-07-22T13:24:19.478Z,5.10
2018-07-22T13:29:31.393Z,5.60
2018-07-22T13:34:36.101Z,4.87
2018-07-22T13:39:40.521Z,4.80
2018-07-22T13:44:38.593Z,4.30
2018-07-22T13:49:36.142Z,5.50
2018-07-22T13:54:33.696Z,4.60
2018-07-22T13:59:31.742Z,4.83
2018-07-22T14:04:29.290Z,5.93
2018-07-22T14:09:26.799Z,5.27
2018-07-22T14:14:24.340Z,5.67
2018-07-22T14:19:23.640Z,4.20
2018-07-22T14:24:21.200Z,5.17
2018-07-22T14:29:18.725Z,4.83
2018-07-22T14:34:16.313Z,5.00
2018-07-22T14:39:13.893Z,4.67
2018-07-22T14:44:11.505Z,5.00
2018-07-22T14:49:09.895Z,4.70
2018-07-22T14:54:12.184Z,5.30
2018-07-22T14:59:11.354Z,4.70
2018-07-22T15:04:13.748Z,4.50
2018-07-22T15:09:11.711Z,4.40
2018-07-22T15:14:09.306Z,5.50
2018-07-22T15:19:12.041Z,5.57
2018-07-22T15:24:09.724Z,4.50
2018-07-22T15:29:09.460Z,4.50
2018-07-22T15:34:08.933Z,5.30
2018-07-22T15:39:08.925Z,4.90
2018-07-22T15:44:06.506Z,5.10
2018-07-22T15:49:04.723Z,4.83
2018-07-22T15:54:02.392Z,4.70
2018-07-22T15:59:01.938Z,3.87
2018-07-22T16:04:01.026Z,4.03
2018-07-22T16:08:59.423Z,5.00
2018-07-22T16:13:57.351Z,4.60
2018-07-22T16:18:57.311Z,4.80
2018-07-22T16:23:56.445Z,5.57
2018-07-22T16:28:54.028Z,4.87
2018-07-22T16:33:51.592Z,4.17
2018-07-22T16:38:49.200Z,4.30
2018-07-22T16:43:46.891Z,4.77
2018-07-22T16:48:45.820Z,4.80
2018-07-22T16:53:43.370Z,4.60
2018-07-22T16:58:42.261Z,4.47
2018-07-22T17:03:40.613Z,3.90
2018-07-22T17:08:38.164Z,4.40
2018-07-22T17:13:35.737Z,4.77
2018-07-22T17:18:33.245Z,4.53
2018-07-22T17:23:32.252Z,4.90
2018-07-22T17:28:29.928Z,4.20
2018-07-22T17:33:27.434Z,3.70
2018-07-22T17:38:24.968Z,4.60
2018-07-22T17:43:22.833Z,4.60
2018-07-22T17:48:20.376Z,4.47
2018-07-22T17:53:17.905Z,3.70
2018-07-22T17:58:15.473Z,3.90
2018-07-22T18:03:27.472Z,3.73
2018-07-22T18:08:25.090Z,4.07
2018-07-22T18:13:22.694Z,4.13
2018-07-22T18:18:20.248Z,3.93
2018-07-22T18:23:17.776Z,3.83
2018-07-22T18:28:15.730Z,3.67
2018-07-22T18:33:13.285Z,3.63
2018-07-22T18:38:14.807Z,3.47
2018-07-22T18:43:12.547Z,3.70
2018-07-22T18:48:10.116Z,3.77
2018-07-22T18:53:07.696Z,4.50
2018-07-22T18:58:05.211Z,4.57
2018-07-22T19:03:02.715Z,3.90
2018-07-22T19:08:00.231Z,4.20
2018-07-22T19:12:57.752Z,4.13
2018-07-22T19:17:55.281Z,4.27
2018-07-22T19:22:52.809Z,3.97
2018-07-22T19:27:50.529Z,3.70
2018-07-22T19:32:48.051Z,3.77
2018-07-22T19:37:48.952Z,3.80
2018-07-22T19:42:46.480Z,4.13
2018-07-22T19:47:44.028Z,4.50
2018-07-22T19:52:41.542Z,4.07
2018-07-22T19:57:39.069Z,4.50
2018-07-22T20:02:36.652Z,3.97
2018-07-22T20:07:34.154Z,5.13
2018-07-22T20:12:31.704Z,4.50
2018-07-22T20:17:29.475Z,5.27
2018-07-22T20:22:26.977Z,4.10
2018-07-22T20:27:25.558Z,4.63
2018-07-22T20:32:23.065Z,4.47
2018-07-22T20:37:20.564Z,4.00
2018-07-22T20:42:18.079Z,5.30
2018-07-22T20:47:18.029Z,4.73
2018-07-22T20:52:20.016Z,4.63
2018-07-22T20:57:23.403Z,5.60
2018-07-22T21:02:23.859Z,5.40
2018-07-22T21:07:25.548Z,5.47
2018-07-22T21:12:49.301Z,4.40
2018-07-22T21:17:47.861Z,4.50
2018-07-22T21:22:45.419Z,4.63
2018-07-22T21:27:42.944Z,3.70
2018-07-22T21:32:40.629Z,4.60
2018-07-22T21:37:38.432Z,4.43
2018-07-22T21:42:35.936Z,4.63
2018-07-22T21:47:33.622Z,4.73
2018-07-22T21:52:31.138Z,5.23
2018-07-22T21:57:28.658Z,4.40
2018-07-22T22:02:30.098Z,4.70
2018-07-22T22:07:27.647Z,4.50
2018-07-22T22:12:25.169Z,5.10
2018-07-22T22:17:22.733Z,4.03
2018-07-22T22:22:20.269Z,4.67
2018-07-22T22:27:17.816Z,4.60
2018-07-22T22:32:15.358Z,4.20
2018-07-22T22:37:12.863Z,4.10
2018-07-22T22:42:10.377Z,4.53
2018-07-22T22:47:07.940Z,4.10
2018-07-22T22:52:06.925Z,3.73
2018-07-22T22:57:04.457Z,5.00
2018-07-22T23:02:02.012Z,5.10
2018-07-22T23:06:59.530Z,4.70
2018-07-22T23:11:57.069Z,4.43
2018-07-22T23:16:54.574Z,4.90
2018-07-22T23:21:53.500Z,4.77
2018-07-22T23:26:50.999Z,5.33
2018-07-22T23:31:48.544Z,5.00
2018-07-22T23:36:46.045Z,6.43
2018-07-22T23:41:43.565Z,4.90
2018-07-22T23:46:43.932Z,5.13
2018-07-22T23:51:46.281Z,5.20
2018-07-22T23:56:43.806Z,5.20
